sensor_id;sensor_type;location;lat;lon;timestamp;pressure;altitude;pressure_sealevel;temperature;humidity
50087;BME280;35967;50.718;7.050;2023-02-01T00:09:19;101290.50;;;6.50;100.00
50087;BME280;35967;50.718;7.050;2023-02-01T00:19:24;101291.31;;;6.38;99.59
50087;BME280;35967;50.718;7.050;2023-02-01T00:29:27;101279.38;;;6.36;99.25
50087;BME280;35967;50.718;7.050;2023-02-01T00:39:32;101289.53;;;6.29;97.87
50087;BME280;35967;50.718;7.050;2023-02-01T00:49:36;101276.78;;;6.34;95.54
50087;BME280;35967;50.718;7.050;2023-02-01T00:59:42;101277.66;;;6.35;93.49
50087;BME280;35967;50.718;7.050;2023-02-01T01:09:46;101276.84;;;6.46;90.19
50087;BME280;35967;50.718;7.050;2023-02-01T01:19:52;101252.13;;;6.53;89.05
50087;BME280;35967;50.718;7.050;2023-02-01T01:29:56;101228.31;;;6.57;86.30
50087;BME280;35967;50.718;7.050;2023-02-01T01:40:01;101237.63;;;6.46;86.82
50087;BME280;35967;50.718;7.050;2023-02-01T01:50:07;101274.31;;;6.51;86.72
50087;BME280;35967;50.718;7.050;2023-02-01T02:00:17;101271.75;;;6.46;86.43
50087;BME280;35967;50.718;7.050;2023-02-01T02:10:24;101255.50;;;6.40;85.97
50087;BME280;35967;50.718;7.050;2023-02-01T02:21:09;101234.19;;;6.39;86.35
50087;BME280;35967;50.718;7.050;2023-02-01T02:31:30;101235.09;;;6.47;85.42
50087;BME280;35967;50.718;7.050;2023-02-01T02:41:48;101220.56;;;6.40;85.85
50087;BME280;35967;50.718;7.050;2023-02-01T02:52:18;101235.09;;;6.49;86.65
50087;BME280;35967;50.718;7.050;2023-02-01T03:02:39;101228.22;;;6.45;86.04
50087;BME280;35967;50.718;7.050;2023-02-01T03:13:05;101203.56;;;6.58;85.82
50087;BME280;35967;50.718;7.050;2023-02-01T03:23:33;101184.81;;;6.53;85.37
50087;BME280;35967;50.718;7.050;2023-02-01T03:33:39;101195.03;;;6.53;84.90
50087;BME280;35967;50.718;7.050;2023-02-01T03:43:52;101211.22;;;6.53;85.49
50087;BME280;35967;50.718;7.050;2023-02-01T03:53:58;101210.34;;;6.50;85.24
50087;BME280;35967;50.718;7.050;2023-02-01T04:04:04;101206.97;;;6.47;85.48
50087;BME280;35967;50.718;7.050;2023-02-01T04:14:15;101206.09;;;6.50;84.87
50087;BME280;35967;50.718;7.050;2023-02-01T04:24:19;101201.81;;;6.40;85.14
50087;BME280;35967;50.718;7.050;2023-02-01T04:34:23;101195.81;;;6.36;83.62
50087;BME280;35967;50.718;7.050;2023-02-01T04:44:28;101195.72;;;6.10;85.04
50087;BME280;35967;50.718;7.050;2023-02-01T04:54:32;101193.13;;;6.07;85.05
50087;BME280;35967;50.718;7.050;2023-02-01T05:04:36;101197.47;;;6.23;83.11
50087;BME280;35967;50.718;7.050;2023-02-01T05:14:40;101168.44;;;6.07;82.97
50087;BME280;35967;50.718;7.050;2023-02-01T05:24:46;101166.63;;;5.91;82.91
50087;BME280;35967;50.718;7.050;2023-02-01T05:34:49;101187.88;;;5.87;82.93
50087;BME280;35967;50.718;7.050;2023-02-01T05:44:54;101194.69;;;5.84;82.28
50087;BME280;35967;50.718;7.050;2023-02-01T05:54:57;101194.59;;;5.74;81.86
50087;BME280;35967;50.718;7.050;2023-02-01T06:05:02;101185.13;;;5.52;82.52
50087;BME280;35967;50.718;7.050;2023-02-01T06:15:06;101180.06;;;5.60;82.61
50087;BME280;35967;50.718;7.050;2023-02-01T06:25:11;101188.50;;;5.55;81.91
50087;BME280;35967;50.718;7.050;2023-02-01T06:35:18;101175.75;;;5.55;82.72
50087;BME280;35967;50.718;7.050;2023-02-01T06:45:23;101179.09;;;5.49;83.03
50087;BME280;35967;50.718;7.050;2023-02-01T06:55:27;101198.66;;;5.41;83.80
50087;BME280;35967;50.718;7.050;2023-02-01T07:05:32;101214.81;;;5.43;84.73
50087;BME280;35967;50.718;7.050;2023-02-01T07:15:35;101238.63;;;5.39;83.93
50087;BME280;35967;50.718;7.050;2023-02-01T07:25:39;101225.84;;;5.39;84.59
50087;BME280;35967;50.718;7.050;2023-02-01T07:35:44;101245.44;;;5.40;84.93
50087;BME280;35967;50.718;7.050;2023-02-01T07:45:51;101263.41;;;5.52;83.99
50087;BME280;35967;50.718;7.050;2023-02-01T07:56:20;101255.78;;;5.57;83.47
50087;BME280;35967;50.718;7.050;2023-02-01T08:06:28;101256.72;;;5.66;83.24
50087;BME280;35967;50.718;7.050;2023-02-01T08:16:36;101266.16;;;5.75;82.68
50087;BME280;35967;50.718;7.050;2023-02-01T08:26:43;101286.59;;;5.77;82.64
50087;BME280;35967;50.718;7.050;2023-02-01T08:36:46;101273.06;;;5.90;82.37
50087;BME280;35967;50.718;7.050;2023-02-01T08:46:52;101275.75;;;6.06;81.78
50087;BME280;35967;50.718;7.050;2023-02-01T08:56:56;101289.44;;;6.14;81.12
50087;BME280;35967;50.718;7.050;2023-02-01T09:07:02;101306.50;;;6.15;81.72
50087;BME280;35967;50.718;7.050;2023-02-01T09:17:05;101304.00;;;6.24;81.04
50087;BME280;35967;50.718;7.050;2023-02-01T09:27:10;101293.84;;;6.32;80.71
50087;BME280;35967;50.718;7.050;2023-02-01T09:37:13;101288.78;;;6.49;79.75
50087;BME280;35967;50.718;7.050;2023-02-01T09:47:22;101291.31;;;6.46;79.93
50087;BME280;35967;50.718;7.050;2023-02-01T09:57:31;101291.41;;;6.57;80.58
50087;BME280;35967;50.718;7.050;2023-02-01T10:07:45;101284.66;;;6.76;78.87
50087;BME280;35967;50.718;7.050;2023-02-01T10:17:56;101271.88;;;6.81;78.66
50087;BME280;35967;50.718;7.050;2023-02-01T10:28:04;101267.66;;;6.95;78.36
50087;BME280;35967;50.718;7.050;2023-02-01T10:38:32;101252.31;;;7.03;77.27
50087;BME280;35967;50.718;7.050;2023-02-01T10:48:38;101256.63;;;7.39;75.69
50087;BME280;35967;50.718;7.050;2023-02-01T10:58:46;101260.03;;;7.72;73.63
50087;BME280;35967;50.718;7.050;2023-02-01T11:08:53;101236.16;;;7.58;73.89
50087;BME280;35967;50.718;7.050;2023-02-01T11:19:23;101236.16;;;7.58;73.27
50087;BME280;35967;50.718;7.050;2023-02-01T11:29:31;101249.81;;;7.55;74.36
50087;BME280;35967;50.718;7.050;2023-02-01T11:39:54;101231.03;;;7.67;73.46
50087;BME280;35967;50.718;7.050;2023-02-01T11:50:05;101225.91;;;7.67;72.78
50087;BME280;35967;50.718;7.050;2023-02-01T12:00:26;101218.19;;;7.78;72.33
50087;BME280;35967;50.718;7.050;2023-02-01T12:10:45;101198.53;;;7.83;70.16
50087;BME280;35967;50.718;7.050;2023-02-01T12:21:03;101180.63;;;7.65;72.70
50087;BME280;35967;50.718;7.050;2023-02-01T12:31:48;101163.53;;;7.61;71.71
50087;BME280;35967;50.718;7.050;2023-02-01T12:41:58;101178.06;;;7.54;71.59
50087;BME280;35967;50.718;7.050;2023-02-01T12:52:09;101181.47;;;7.65;71.16
50087;BME280;35967;50.718;7.050;2023-02-01T13:02:21;101171.22;;;7.70;71.53
50087;BME280;35967;50.718;7.050;2023-02-01T13:12:31;101159.25;;;7.72;69.81
50087;BME280;35967;50.718;7.050;2023-02-01T13:22:38;101136.19;;;7.72;69.58
50087;BME280;35967;50.718;7.050;2023-02-01T13:33:24;101137.03;;;7.72;70.25
50087;BME280;35967;50.718;7.050;2023-02-01T13:43:52;101121.69;;;7.68;70.84
50087;BME280;35967;50.718;7.050;2023-02-01T13:54:28;101103.78;;;7.49;74.46
50087;BME280;35967;50.718;7.050;2023-02-01T14:04:58;101098.66;;;7.51;74.25
50087;BME280;35967;50.718;7.050;2023-02-01T14:15:25;101109.72;;;7.65;72.73
50087;BME280;35967;50.718;7.050;2023-02-01T14:25:32;101106.28;;;7.72;73.15
50087;BME280;35967;50.718;7.050;2023-02-01T14:35:38;101104.63;;;7.68;72.38
50087;BME280;35967;50.718;7.050;2023-02-01T14:45:49;101121.66;;;7.82;72.31
50087;BME280;35967;50.718;7.050;2023-02-01T14:55:58;101135.28;;;7.90;71.03
50087;BME280;35967;50.718;7.050;2023-02-01T15:06:18;101127.63;;;7.88;71.43
50087;BME280;35967;50.718;7.050;2023-02-01T15:16:25;101128.44;;;7.92;70.71
50087;BME280;35967;50.718;7.050;2023-02-01T15:26:31;101130.97;;;8.01;70.81
50087;BME280;35967;50.718;7.050;2023-02-01T15:36:37;101130.94;;;8.06;70.64
50087;BME280;35967;50.718;7.050;2023-02-01T15:46:48;101133.53;;;8.01;71.18
50087;BME280;35967;50.718;7.050;2023-02-01T15:57:19;101146.41;;;7.86;74.53
50087;BME280;35967;50.718;7.050;2023-02-01T16:07:26;101149.91;;;7.55;78.36
50087;BME280;35967;50.718;7.050;2023-02-01T16:17:31;101167.84;;;7.38;84.26
50087;BME280;35967;50.718;7.050;2023-02-01T16:27:36;101180.66;;;7.09;88.93
50087;BME280;35967;50.718;7.050;2023-02-01T16:37:40;101196.81;;;6.82;90.22
50087;BME280;35967;50.718;7.050;2023-02-01T16:47:47;101220.69;;;6.79;93.24
50087;BME280;35967;50.718;7.050;2023-02-01T16:57:54;101221.50;;;6.64;94.53
50087;BME280;35967;50.718;7.050;2023-02-01T17:08:01;101228.28;;;6.54;96.72
50087;BME280;35967;50.718;7.050;2023-02-01T17:18:10;101214.63;;;6.47;98.12
50087;BME280;35967;50.718;7.050;2023-02-01T17:28:17;101226.53;;;6.47;99.01
50087;BME280;35967;50.718;7.050;2023-02-01T17:38:23;101224.00;;;6.45;98.92
50087;BME280;35967;50.718;7.050;2023-02-01T17:48:26;101223.91;;;6.33;98.57
50087;BME280;35967;50.718;7.050;2023-02-01T17:58:31;101233.31;;;6.32;98.68
50087;BME280;35967;50.718;7.050;2023-02-01T18:08:34;101229.13;;;6.52;96.54
50087;BME280;35967;50.718;7.050;2023-02-01T18:18:39;101229.09;;;6.47;96.41
50087;BME280;35967;50.718;7.050;2023-02-01T18:28:42;101241.97;;;6.59;96.86
50087;BME280;35967;50.718;7.050;2023-02-01T18:38:47;101241.13;;;6.60;95.84
50087;BME280;35967;50.718;7.050;2023-02-01T18:48:50;101230.84;;;6.59;94.33
50087;BME280;35967;50.718;7.050;2023-02-01T18:58:55;101237.72;;;6.75;94.03
50087;BME280;35967;50.718;7.050;2023-02-01T19:09:00;101247.13;;;6.75;92.63
50087;BME280;35967;50.718;7.050;2023-02-01T19:19:04;101239.47;;;6.81;91.94
50087;BME280;35967;50.718;7.050;2023-02-01T19:29:08;101236.91;;;6.84;91.15
50087;BME280;35967;50.718;7.050;2023-02-01T19:39:13;101229.25;;;6.97;90.70
50087;BME280;35967;50.718;7.050;2023-02-01T19:49:16;101221.59;;;6.89;89.73
50087;BME280;35967;50.718;7.050;2023-02-01T19:59:21;101231.84;;;7.09;88.83
50087;BME280;35967;50.718;7.050;2023-02-01T20:09:26;101238.69;;;7.18;88.86
50087;BME280;35967;50.718;7.050;2023-02-01T20:19:32;101222.47;;;7.20;88.74
50087;BME280;35967;50.718;7.050;2023-02-01T20:29:36;101217.34;;;7.13;88.88
50087;BME280;35967;50.718;7.050;2023-02-01T20:39:41;101213.09;;;7.22;88.25
50087;BME280;35967;50.718;7.050;2023-02-01T20:49:44;101215.31;;;8.74;91.56
50087;BME280;35967;50.718;7.050;2023-02-01T20:59:50;101220.78;;;7.29;87.96
50087;BME280;35967;50.718;7.050;2023-02-01T21:09:55;101220.78;;;7.42;87.51
50087;BME280;35967;50.718;7.050;2023-02-01T21:19:59;101230.16;;;7.39;87.58
50087;BME280;35967;50.718;7.050;2023-02-01T21:30:03;101222.47;;;7.45;87.23
50087;BME280;35967;50.718;7.050;2023-02-01T21:40:10;101242.09;;;7.49;87.73
50087;BME280;35967;50.718;7.050;2023-02-01T21:50:15;101238.72;;;7.47;88.01
50087;BME280;35967;50.718;7.050;2023-02-01T22:00:20;101245.56;;;7.48;88.22
50087;BME280;35967;50.718;7.050;2023-02-01T22:10:24;101254.06;;;7.50;88.24
50087;BME280;35967;50.718;7.050;2023-02-01T22:20:28;101266.03;;;7.54;88.30
50087;BME280;35967;50.718;7.050;2023-02-01T22:30:31;101273.72;;;7.59;88.42
50087;BME280;35967;50.718;7.050;2023-02-01T22:40:36;101284.81;;;7.66;87.94
50087;BME280;35967;50.718;7.050;2023-02-01T22:50:39;101282.25;;;7.64;88.07
50087;BME280;35967;50.718;7.050;2023-02-01T23:00:43;101295.09;;;7.67;87.88
50087;BME280;35967;50.718;7.050;2023-02-01T23:10:46;101283.13;;;7.62;87.94
50087;BME280;35967;50.718;7.050;2023-02-01T23:20:50;101295.09;;;7.72;87.56
50087;BME280;35967;50.718;7.050;2023-02-01T23:30:54;101311.28;;;7.68;87.98
50087;BME280;35967;50.718;7.050;2023-02-01T23:41:00;101299.34;;;7.67;88.61
50087;BME280;35967;50.718;7.050;2023-02-01T23:51:04;101305.31;;;7.73;88.31
